Time;durP1;ratioP1;P1;durP2;ratioP2;P2;SDS_P1;SDS_P2;PMS_P1;PMS_P2;Temp;Humidity;BMP_temperature;BMP_pressure;BME280_temperature;BME280_humidity;BME280_pressure;Samples;Min_cycle;Max_cycle;Signal;HPM_P1;HPM_P2
2022/10/10 00:00:50;;;;;;;10.20;6.40;;;12.40;99.90;;;;;;5028308;28;20062;-74
2022/10/10 00:03:16;;;;;;;17.23;6.85;;;12.40;99.90;;;;;;5022057;28;20079;-74
2022/10/10 00:05:46;;;;;;;10.82;6.40;;;12.50;99.90;;;;;;5027383;28;20475;-74
2022/10/10 00:08:12;;;;;;;10.50;6.78;;;12.50;99.90;;;;;;5025992;28;20057;-74
2022/10/10 00:10:40;;;;;;;10.10;7.15;;;12.50;99.90;;;;;;5026899;28;20454;-74
2022/10/10 00:13:09;;;;;;;8.98;6.43;;;12.50;99.90;;;;;;5027495;28;20021;-74
2022/10/10 00:15:46;;;;;;;10.05;7.13;;;12.50;99.90;;;;;;5026439;28;20029;-73
2022/10/10 00:18:17;;;;;;;10.30;7.20;;;12.50;99.90;;;;;;5023242;28;20029;-73
2022/10/10 00:20:43;;;;;;;8.50;6.15;;;12.50;99.90;;;;;;5024414;28;20036;-74
2022/10/10 00:23:09;;;;;;;11.07;7.07;;;12.50;99.90;;;;;;5040265;28;20025;-74
2022/10/10 00:25:36;;;;;;;11.20;6.70;;;12.50;99.90;;;;;;5025607;28;20579;-73
2022/10/10 00:28:03;;;;;;;8.98;6.07;;;12.50;99.90;;;;;;5025887;28;20033;-73
2022/10/10 00:30:29;;;;;;;11.48;7.28;;;12.50;99.90;;;;;;5024772;28;20037;-73
2022/10/10 00:32:56;;;;;;;9.35;6.20;;;12.50;99.90;;;;;;5025884;28;20493;-73
2022/10/10 00:35:25;;;;;;;11.02;6.88;;;12.50;99.90;;;;;;5027055;28;20025;-73
2022/10/10 00:37:51;;;;;;;12.68;6.72;;;12.50;99.90;;;;;;5027514;28;20383;-74
2022/10/10 00:40:16;;;;;;;11.73;6.63;;;12.50;99.90;;;;;;5014487;28;20041;-73
2022/10/10 00:42:42;;;;;;;10.40;6.55;;;12.50;99.90;;;;;;5026070;28;20028;-75
2022/10/10 00:45:34;;;;;;;13.02;6.32;;;12.50;99.90;;;;;;5039309;28;20025;-74
2022/10/10 00:48:14;;;;;;;10.05;6.45;;;12.50;99.90;;;;;;5021578;28;20076;-74
2022/10/10 00:51:02;;;;;;;12.43;6.50;;;12.50;99.90;;;;;;5038038;28;20034;-74
2022/10/10 00:53:56;;;;;;;12.10;6.15;;;12.50;99.90;;;;;;5020339;28;20038;-73
2022/10/10 00:56:29;;;;;;;8.77;5.85;;;12.50;99.90;;;;;;5037941;28;20045;-74
2022/10/10 00:58:58;;;;;;;13.00;6.90;;;12.60;99.90;;;;;;5019895;28;20383;-72
2022/10/10 01:01:30;;;;;;;13.05;6.88;;;12.60;99.90;;;;;;5039822;28;20033;-72
2022/10/10 01:03:58;;;;;;;11.07;5.63;;;12.60;99.90;;;;;;5023250;28;20021;-74
2022/10/10 01:06:27;;;;;;;10.15;5.88;;;12.60;99.90;;;;;;5041781;28;20397;-74
2022/10/10 01:08:55;;;;;;;10.40;5.75;;;12.60;99.90;;;;;;5024742;28;20053;-74
2022/10/10 01:11:32;;;;;;;8.52;5.63;;;12.60;99.90;;;;;;5024179;28;20033;-74
2022/10/10 01:14:15;;;;;;;10.32;5.65;;;12.60;99.90;;;;;;5022527;28;20456;-74
2022/10/10 01:17:17;;;;;;;9.75;5.35;;;12.60;99.90;;;;;;5026730;28;20040;-74
2022/10/10 01:20:06;;;;;;;11.82;6.32;;;12.60;99.90;;;;;;5026233;28;20116;-74
2022/10/10 01:22:55;;;;;;;10.52;5.25;;;12.60;99.90;;;;;;5007214;28;20494;-72
2022/10/10 01:26:01;;;;;;;8.93;5.40;;;12.60;99.90;;;;;;5024078;28;20038;-72
2022/10/10 01:28:39;;;;;;;11.38;5.63;;;12.60;99.90;;;;;;5025655;28;20035;-74
2022/10/10 01:31:11;;;;;;;7.55;5.40;;;12.70;99.90;;;;;;5024866;28;20029;-73
2022/10/10 01:33:50;;;;;;;9.02;5.20;;;12.60;99.90;;;;;;5023988;28;20022;-73
2022/10/10 01:36:39;;;;;;;9.63;5.28;;;12.60;99.90;;;;;;5026487;28;20021;-73
2022/10/10 01:39:23;;;;;;;10.38;5.75;;;12.60;99.90;;;;;;5025991;28;20076;-74
2022/10/10 01:41:58;;;;;;;;;;;12.60;99.90;;;;;;5044210;28;20025;-74
2022/10/10 01:44:26;;;;;;;13.40;6.05;;;12.60;99.90;;;;;;5027057;28;19917;-77
2022/10/10 01:46:52;;;;;;;11.85;6.03;;;12.60;99.90;;;;;;5029114;28;20092;-77
2022/10/10 01:49:27;;;;;;;8.52;5.68;;;12.50;99.90;;;;;;5026957;28;20478;-77
2022/10/10 01:52:21;;;;;;;7.57;5.38;;;12.50;99.90;;;;;;5027628;28;20034;-77
2022/10/10 01:55:16;;;;;;;9.82;5.75;;;12.50;99.90;;;;;;5027872;28;20394;-77
2022/10/10 01:57:55;;;;;;;12.25;5.82;;;12.50;99.90;;;;;;5022053;28;20530;-77
2022/10/10 02:00:21;;;;;;;10.73;5.53;;;12.50;99.90;;;;;;5040962;28;20057;-77
2022/10/10 02:03:01;;;;;;;11.10;5.88;;;12.50;99.90;;;;;;5025191;28;20103;-75
2022/10/10 02:05:29;;;;;;;8.38;5.13;;;12.40;99.90;;;;;;5025228;28;20442;-76
2022/10/10 02:08:03;;;;;;;7.47;5.05;;;12.40;99.90;;;;;;5025490;28;20043;-74
2022/10/10 02:10:34;;;;;;;8.52;5.25;;;12.40;99.90;;;;;;5024627;28;20494;-75
2022/10/10 02:13:05;;;;;;;11.77;4.95;;;12.40;99.90;;;;;;5026128;28;20116;-76
2022/10/10 02:15:39;;;;;;;13.93;5.78;;;12.40;99.90;;;;;;5026195;28;20084;-76
2022/10/10 02:18:07;;;;;;;7.97;5.82;;;12.40;99.90;;;;;;5023549;28;20025;-73
2022/10/10 02:20:33;;;;;;;7.45;5.30;;;12.40;99.90;;;;;;5027371;28;20064;-76
2022/10/10 02:22:59;;;;;;;7.55;4.85;;;12.40;99.90;;;;;;5029577;28;20038;-76
2022/10/10 02:25:30;;;;;;;8.60;5.30;;;12.40;99.90;;;;;;5030620;28;20032;-76
2022/10/10 02:28:17;;;;;;;11.40;5.32;;;12.40;99.90;;;;;;5031575;28;20063;-76
2022/10/10 02:30:45;;;;;;;7.32;5.20;;;12.40;99.90;;;;;;5028521;28;20033;-76
2022/10/10 02:33:25;;;;;;;8.18;5.57;;;12.30;99.90;;;;;;5029169;28;20044;-75
2022/10/10 02:35:52;;;;;;;11.00;5.63;;;12.30;99.90;;;;;;5031799;28;20017;-75
2022/10/10 02:38:19;;;;;;;9.70;5.60;;;12.40;99.90;;;;;;5029547;28;20076;-75
2022/10/10 02:40:48;;;;;;;8.27;4.63;;;12.40;99.90;;;;;;5042155;28;20029;-75
2022/10/10 02:43:15;;;;;;;7.43;5.57;;;12.40;99.90;;;;;;5020671;28;21985;-77
2022/10/10 02:45:42;;;;;;;9.40;5.75;;;12.30;99.90;;;;;;5016561;28;20466;-76
2022/10/10 02:48:08;;;;;;;10.90;5.78;;;12.40;99.90;;;;;;5028748;28;20025;-76
2022/10/10 02:50:37;;;;;;;7.90;4.80;;;12.40;99.90;;;;;;5029172;28;20498;-77
2022/10/10 02:53:02;;;;;;;8.23;5.53;;;12.30;99.90;;;;;;5027678;28;20028;-76
2022/10/10 02:55:28;;;;;;;10.43;5.35;;;12.30;99.90;;;;;;5029175;28;20025;-76
2022/10/10 02:57:54;;;;;;;7.25;5.93;;;12.30;99.90;;;;;;5030261;28;20025;-76
2022/10/10 03:00:22;;;;;;;7.90;5.68;;;12.30;99.90;;;;;;5026520;28;20029;-76
2022/10/10 03:02:51;;;;;;;11.48;5.35;;;12.30;99.90;;;;;;5026949;28;20022;-76
2022/10/10 03:05:17;;;;;;;8.65;5.57;;;12.30;99.90;;;;;;5027806;28;20120;-76
2022/10/10 03:07:42;;;;;;;9.18;5.90;;;12.30;99.90;;;;;;5032442;28;20567;-77
2022/10/10 03:10:09;;;;;;;7.20;5.30;;;12.30;99.90;;;;;;5042679;28;20018;-77
2022/10/10 03:12:38;;;;;;;8.70;5.32;;;12.30;99.90;;;;;;5027169;28;20021;-77
2022/10/10 03:15:07;;;;;;;7.75;5.25;;;12.30;99.90;;;;;;5044327;28;20118;-77
2022/10/10 03:17:32;;;;;;;6.10;4.93;;;12.30;99.90;;;;;;5029293;28;20053;-76
2022/10/10 03:19:58;;;;;;;10.35;5.45;;;12.30;99.90;;;;;;5044226;28;20052;-75
2022/10/10 03:22:29;;;;;;;8.75;5.22;;;12.30;99.90;;;;;;5026985;28;20029;-74
2022/10/10 03:24:55;;;;;;;7.57;4.90;;;12.30;99.90;;;;;;5028429;28;20104;-76
2022/10/10 03:27:21;;;;;;;6.15;4.85;;;12.30;99.90;;;;;;5027687;28;20109;-75
2022/10/10 03:29:53;;;;;;;7.75;5.10;;;12.30;99.90;;;;;;5042490;28;20505;-75
2022/10/10 03:32:18;;;;;;;8.20;4.90;;;12.30;99.90;;;;;;5022746;28;20037;-76
2022/10/10 03:34:44;;;;;;;7.50;4.95;;;12.30;99.90;;;;;;5044534;28;20453;-76
2022/10/10 03:37:10;;;;;;;11.00;5.78;;;12.30;99.90;;;;;;5029773;28;20033;-75
2022/10/10 03:39:38;;;;;;;8.95;5.45;;;12.30;99.90;;;;;;5027896;28;20371;-75
2022/10/10 03:42:07;;;;;;;7.35;4.53;;;12.30;99.90;;;;;;5028110;28;20636;-74
2022/10/10 03:44:32;;;;;;;9.15;5.10;;;12.30;99.90;;;;;;5030120;28;20033;-74
2022/10/10 03:46:58;;;;;;;9.30;4.60;;;12.30;99.90;;;;;;5046606;28;20021;-74
2022/10/10 03:49:24;;;;;;;6.40;4.45;;;12.30;99.90;;;;;;5027934;28;20033;-76
2022/10/10 03:51:52;;;;;;;9.35;5.68;;;12.30;99.90;;;;;;5026873;28;20116;-76
2022/10/10 03:54:18;;;;;;;12.40;5.25;;;12.30;99.90;;;;;;5046050;28;20416;-76
2022/10/10 03:56:49;;;;;;;6.93;5.40;;;12.30;99.90;;;;;;5030494;28;20040;-75
2022/10/10 03:59:15;;;;;;;8.95;5.53;;;12.30;99.90;;;;;;5025419;28;20029;-75
2022/10/10 04:01:40;;;;;;;10.75;5.05;;;12.30;99.90;;;;;;5028367;28;20095;-75
2022/10/10 04:04:06;;;;;;;6.78;5.18;;;12.30;99.90;;;;;;5027628;28;20029;-75
2022/10/10 04:06:32;;;;;;;9.57;5.65;;;12.30;99.90;;;;;;5025297;28;20034;-69
2022/10/10 04:08:57;;;;;;;9.57;5.55;;;12.20;99.90;;;;;;5025678;28;20025;-68
2022/10/10 04:11:29;;;;;;;9.05;5.53;;;12.20;99.90;;;;;;5028500;28;20040;-68
2022/10/10 04:13:57;;;;;;;9.18;5.05;;;12.20;99.90;;;;;;5028778;28;20053;-68
2022/10/10 04:16:23;;;;;;;8.93;5.38;;;12.20;99.90;;;;;;5026820;28;20120;-68
2022/10/10 04:18:52;;;;;;;7.28;5.30;;;12.20;99.90;;;;;;5027455;28;20108;-68
2022/10/10 04:21:20;;;;;;;8.55;5.30;;;12.20;99.90;;;;;;5026391;28;20025;-68
2022/10/10 04:23:46;;;;;;;8.73;5.00;;;12.20;99.90;;;;;;5027108;28;20088;-68
2022/10/10 04:26:12;;;;;;;9.73;4.60;;;12.20;99.90;;;;;;5026480;28;20654;-68
2022/10/10 04:28:37;;;;;;;7.80;4.82;;;12.20;99.90;;;;;;5023388;28;20536;-68
2022/10/10 04:31:03;;;;;;;7.20;4.32;;;12.20;99.90;;;;;;5026390;28;20061;-75
2022/10/10 04:33:29;;;;;;;9.63;5.82;;;12.20;99.90;;;;;;5026905;28;20033;-75
2022/10/10 04:35:54;;;;;;;9.10;6.10;;;12.20;99.90;;;;;;5043172;28;20390;-74
2022/10/10 04:38:21;;;;;;;7.97;4.97;;;12.10;99.90;;;;;;5023133;28;20034;-76
2022/10/10 04:40:48;;;;;;;7.85;4.90;;;12.10;99.90;;;;;;5024166;28;20026;-75
2022/10/10 04:43:14;;;;;;;9.52;5.18;;;12.10;99.90;;;;;;5022733;28;20467;-73
2022/10/10 04:45:40;;;;;;;7.55;4.72;;;12.10;99.90;;;;;;5027282;28;20036;-76
2022/10/10 04:48:05;;;;;;;11.48;6.03;;;12.10;99.90;;;;;;5025545;28;20030;-76
2022/10/10 04:50:37;;;;;;;9.43;6.07;;;12.10;99.90;;;;;;5025468;28;20525;-77
2022/10/10 04:53:03;;;;;;;10.68;6.45;;;12.10;99.90;;;;;;5040190;28;20052;-73
2022/10/10 04:55:29;;;;;;;9.30;6.80;;;12.00;99.90;;;;;;5025567;28;20029;-74
2022/10/10 04:57:54;;;;;;;10.45;6.05;;;12.00;99.90;;;;;;5022614;28;20486;-75
2022/10/10 05:00:20;;;;;;;11.93;5.68;;;12.00;99.90;;;;;;5021006;28;20053;-73
2022/10/10 05:02:45;;;;;;;8.60;6.00;;;12.00;99.90;;;;;;5022497;28;20026;-73
2022/10/10 05:05:17;;;;;;;9.98;5.60;;;12.00;99.90;;;;;;5025653;28;20021;-74
2022/10/10 05:07:46;;;;;;;8.80;5.45;;;11.90;99.90;;;;;;5027542;28;20024;-73
2022/10/10 05:10:11;;;;;;;10.18;5.22;;;11.90;99.90;;;;;;5024044;28;20052;-73
2022/10/10 05:12:40;;;;;;;9.98;5.55;;;11.90;99.90;;;;;;5024136;28;20881;-73
2022/10/10 05:15:15;;;;;;;12.82;6.20;;;11.90;99.90;;;;;;5028627;28;20021;-76
2022/10/10 05:17:40;;;;;;;11.48;5.65;;;11.90;99.90;;;;;;5027349;28;20040;-74
2022/10/10 05:20:10;;;;;;;10.75;6.32;;;11.90;99.90;;;;;;5028626;28;20092;-76
2022/10/10 05:22:35;;;;;;;11.32;5.97;;;11.90;99.90;;;;;;5027632;28;20375;-76
2022/10/10 05:25:01;;;;;;;8.05;5.68;;;11.90;99.90;;;;;;5026360;28;20071;-76
2022/10/10 05:27:27;;;;;;;12.52;6.55;;;11.90;99.90;;;;;;5028372;28;20041;-76
2022/10/10 05:30:02;;;;;;;13.52;5.18;;;11.90;99.90;;;;;;5025670;28;20040;-75
2022/10/10 05:32:28;;;;;;;11.25;5.68;;;11.80;99.90;;;;;;5025075;28;20693;-75
2022/10/10 05:34:54;;;;;;;10.05;6.30;;;11.80;99.90;;;;;;5021432;28;20025;-74
2022/10/10 05:37:19;;;;;;;11.90;6.82;;;11.80;99.90;;;;;;5027921;28;20083;-75
2022/10/10 05:39:51;;;;;;;9.50;6.03;;;11.80;99.90;;;;;;5028589;28;20104;-75
2022/10/10 05:42:17;;;;;;;9.18;5.00;;;11.90;99.90;;;;;;5026391;28;20054;-77
2022/10/10 05:44:42;;;;;;;18.15;6.28;;;11.90;99.90;;;;;;5030239;28;20473;-76
2022/10/10 05:47:08;;;;;;;10.65;5.28;;;11.90;99.90;;;;;;5029175;28;20116;-75
2022/10/10 05:49:34;;;;;;;16.05;5.80;;;11.90;99.90;;;;;;5027915;28;20493;-74
2022/10/10 05:51:59;;;;;;;14.43;6.22;;;11.90;99.90;;;;;;5034368;28;20048;-73
2022/10/10 05:54:25;;;;;;;11.45;5.80;;;11.90;99.90;;;;;;5023876;28;20084;-73
2022/10/10 05:56:50;;;;;;;10.85;5.45;;;11.90;99.90;;;;;;5046335;28;20025;-74
2022/10/10 05:59:19;;;;;;;11.02;5.43;;;11.90;99.90;;;;;;5025078;28;20124;-73
2022/10/10 06:01:47;;;;;;;12.88;6.15;;;11.90;99.90;;;;;;5023337;28;20109;-74
2022/10/10 06:04:22;;;;;;;12.13;6.63;;;11.90;99.90;;;;;;5029669;28;20429;-74
2022/10/10 06:06:49;;;;;;;12.00;6.13;;;12.00;99.90;;;;;;5030596;28;20026;-75
2022/10/10 06:09:15;;;;;;;13.10;6.47;;;12.00;99.90;;;;;;5030163;28;20017;-75
2022/10/10 06:11:40;;;;;;;13.25;6.20;;;12.00;99.90;;;;;;5029934;28;20037;-76
2022/10/10 06:14:06;;;;;;;10.60;6.38;;;12.00;99.90;;;;;;5028639;28;20092;-75
2022/10/10 06:16:32;;;;;;;9.23;5.68;;;12.10;99.90;;;;;;5026575;28;20243;-76
2022/10/10 06:18:58;;;;;;;10.68;5.75;;;12.10;99.90;;;;;;5025746;28;20105;-76
2022/10/10 06:21:24;;;;;;;11.05;6.22;;;12.10;99.90;;;;;;5024446;28;20033;-75
2022/10/10 06:23:53;;;;;;;10.80;6.25;;;12.10;99.90;;;;;;5042350;28;20037;-75
2022/10/10 06:26:19;;;;;;;11.45;6.10;;;12.20;99.90;;;;;;5044579;28;20029;-74
2022/10/10 06:28:49;;;;;;;12.00;6.38;;;12.20;99.90;;;;;;5039630;28;20022;-74
2022/10/10 06:31:15;;;;;;;11.10;6.10;;;12.20;99.90;;;;;;5024740;28;20615;-76
2022/10/10 06:33:45;;;;;;;11.90;6.40;;;12.20;99.90;;;;;;5043257;28;20116;-75
2022/10/10 06:36:14;;;;;;;13.05;6.43;;;12.30;99.90;;;;;;5033121;28;20030;-75
2022/10/10 06:38:43;;;;;;;14.85;6.35;;;12.30;99.90;;;;;;5031005;28;20029;-75
2022/10/10 06:41:09;;;;;;;15.23;6.45;;;12.30;99.90;;;;;;5032398;28;20022;-76
2022/10/10 06:43:37;;;;;;;10.88;5.97;;;12.40;99.90;;;;;;5027942;28;20018;-75
2022/10/10 06:46:06;;;;;;;10.73;6.10;;;12.50;99.90;;;;;;5028081;28;20115;-75
2022/10/10 06:48:38;;;;;;;13.80;6.35;;;12.50;99.90;;;;;;5044447;28;20037;-75
2022/10/10 06:51:11;;;;;;;13.18;6.47;;;12.50;99.90;;;;;;5026921;28;20033;-75
2022/10/10 06:53:46;;;;;;;13.48;6.25;;;12.60;99.90;;;;;;5025952;28;20037;-75
2022/10/10 06:56:20;;;;;;;13.10;6.50;;;12.60;99.90;;;;;;5020724;28;20095;-75
2022/10/10 06:58:48;;;;;;;;;;;12.70;99.90;;;;;;5030999;28;20022;-74
2022/10/10 07:01:17;;;;;;;14.73;6.60;;;12.70;99.90;;;;;;5025860;28;20019;-75
2022/10/10 07:03:43;;;;;;;14.18;6.47;;;12.70;99.90;;;;;;5024059;28;20099;-75
2022/10/10 07:06:10;;;;;;;14.02;7.00;;;12.80;99.90;;;;;;5028593;28;20029;-75
2022/10/10 07:08:39;;;;;;;13.48;7.10;;;12.80;99.90;;;;;;5023798;28;20025;-75
2022/10/10 07:11:08;;;;;;;12.13;6.93;;;12.80;99.90;;;;;;5041028;28;20033;-75
2022/10/10 07:13:35;;;;;;;12.60;6.50;;;12.80;99.90;;;;;;5046196;28;20033;-75
2022/10/10 07:16:01;;;;;;;12.77;6.45;;;12.90;99.90;;;;;;5028590;28;20473;-75
2022/10/10 07:18:27;;;;;;;12.38;6.80;;;12.90;99.90;;;;;;5026907;28;20117;-73
2022/10/10 07:21:02;;;;;;;16.33;6.32;;;12.90;99.90;;;;;;5026860;28;20068;-75
2022/10/10 07:23:30;;;;;;;11.85;6.25;;;13.00;99.90;;;;;;5042087;28;20037;-74
2022/10/10 07:26:09;;;;;;;14.48;7.20;;;13.00;99.90;;;;;;5028543;28;20032;-75
2022/10/10 07:28:50;;;;;;;14.90;6.50;;;13.00;99.90;;;;;;5027192;28;20750;-75
2022/10/10 07:31:16;;;;;;;15.05;6.70;;;13.00;99.90;;;;;;5013813;28;20835;-76
2022/10/10 07:33:47;;;;;;;12.75;6.93;;;13.10;99.90;;;;;;5016948;28;20083;-75
2022/10/10 07:36:19;;;;;;;12.38;5.97;;;13.10;99.90;;;;;;5025854;28;20033;-76
2022/10/10 07:38:50;;;;;;;11.88;6.25;;;13.20;99.90;;;;;;5042228;28;20033;-76
2022/10/10 07:41:28;;;;;;;17.85;6.45;;;13.20;99.90;;;;;;5044527;28;20515;-76
2022/10/10 07:43:55;;;;;;;12.25;6.32;;;13.20;99.90;;;;;;5033039;28;20133;-72
2022/10/10 07:46:20;;;;;;;13.70;7.03;;;13.20;99.90;;;;;;5033952;28;20105;-71
2022/10/10 07:48:52;;;;;;;11.88;6.68;;;13.20;99.90;;;;;;5034014;28;20053;-71
2022/10/10 07:51:30;;;;;;;14.27;7.50;;;13.30;99.90;;;;;;5033888;28;20040;-71
2022/10/10 07:53:55;;;;;;;13.80;7.13;;;13.30;99.90;;;;;;5049251;28;20037;-71
2022/10/10 07:56:31;;;;;;;18.48;7.75;;;13.30;99.90;;;;;;5049037;28;20026;-72
2022/10/10 07:59:02;;;;;;;16.63;7.93;;;13.30;99.90;;;;;;5033931;28;20186;-72
2022/10/10 08:01:28;;;;;;;21.75;7.95;;;13.40;99.90;;;;;;5033501;28;20040;-72
2022/10/10 08:03:57;;;;;;;18.27;7.47;;;13.40;99.90;;;;;;5033693;28;20030;-72
2022/10/10 08:06:22;;;;;;;16.75;7.78;;;13.40;99.90;;;;;;5033457;28;20022;-71
2022/10/10 08:09:07;;;;;;;13.55;7.80;;;13.40;99.90;;;;;;5033679;28;20378;-71
2022/10/10 08:11:32;;;;;;;13.50;7.07;;;13.40;99.90;;;;;;5033553;28;20047;-71
2022/10/10 08:14:01;;;;;;;15.93;7.18;;;13.40;99.90;;;;;;5013776;28;20022;-71
2022/10/10 08:16:29;;;;;;;11.85;7.05;;;13.50;99.90;;;;;;5013382;28;20053;-72
2022/10/10 08:18:55;;;;;;;11.15;5.72;;;13.50;99.90;;;;;;5018287;28;20601;-72
2022/10/10 08:21:21;;;;;;;15.27;7.93;;;13.50;99.90;;;;;;5033590;28;20033;-72
2022/10/10 08:23:55;;;;;;;12.43;6.82;;;13.60;99.90;;;;;;5033218;28;20540;-72
2022/10/10 08:26:21;;;;;;;11.35;6.55;;;13.60;99.90;;;;;;5031872;28;20033;-71
2022/10/10 08:28:50;;;;;;;12.90;6.70;;;13.70;99.90;;;;;;5033048;28;20018;-72
2022/10/10 08:31:18;;;;;;;12.93;6.53;;;13.70;99.90;;;;;;5033088;28;20048;-71
2022/10/10 08:33:45;;;;;;;10.40;7.07;;;13.70;99.90;;;;;;5032885;28;20052;-70
2022/10/10 08:36:20;;;;;;;10.05;5.85;;;13.70;99.90;;;;;;5048352;28;20116;-71
2022/10/10 08:38:51;;;;;;;11.60;6.47;;;13.80;99.90;;;;;;5032966;28;20040;-71
2022/10/10 08:41:27;;;;;;;9.43;5.70;;;13.70;99.90;;;;;;5048236;28;20044;-71
2022/10/10 08:44:31;;;;;;;15.32;6.68;;;13.80;99.90;;;;;;5032822;28;20021;-71
2022/10/10 08:47:35;;;;;;;15.63;7.07;;;13.80;99.90;;;;;;5032795;28;20079;-72
2022/10/10 08:50:05;;;;;;;11.57;6.85;;;13.80;99.90;;;;;;5028181;28;20033;-71
2022/10/10 08:52:40;;;;;;;10.45;6.47;;;13.80;99.90;;;;;;5028290;28;20040;-71
2022/10/10 08:55:18;;;;;;;17.30;7.28;;;13.90;99.90;;;;;;5042905;28;20036;-72
2022/10/10 08:57:52;;;;;;;10.82;5.72;;;13.90;99.90;;;;;;5047818;28;20029;-72
2022/10/10 09:00:21;;;;;;;15.07;7.47;;;14.00;99.90;;;;;;5047823;28;20035;-71
2022/10/10 09:02:56;;;;;;;13.57;7.30;;;14.00;99.90;;;;;;5032625;28;20108;-72
2022/10/10 09:05:29;;;;;;;17.20;6.65;;;14.10;99.90;;;;;;5031299;28;20024;-70
2022/10/10 09:08:28;;;;;;;12.30;7.17;;;14.10;99.90;;;;;;5032442;28;20040;-71
2022/10/10 09:11:37;;;;;;;13.88;7.03;;;14.20;99.90;;;;;;5032479;28;20254;-72
2022/10/10 09:14:18;;;;;;;11.68;7.43;;;14.30;99.90;;;;;;5010697;28;20506;-71
2022/10/10 09:17:08;;;;;;;11.40;7.10;;;14.40;99.90;;;;;;5032262;28;20029;-71
2022/10/10 09:19:41;;;;;;;13.27;7.47;;;14.40;99.90;;;;;;5032220;28;20070;-71
2022/10/10 09:22:25;;;;;;;15.43;7.80;;;14.50;99.90;;;;;;5031029;28;20029;-71
2022/10/10 09:25:02;;;;;;;14.75;7.78;;;14.60;99.90;;;;;;5032272;28;20379;-71
2022/10/10 09:27:33;;;;;;;13.25;7.63;;;14.60;99.90;;;;;;5032175;28;20036;-72
2022/10/10 09:30:14;;;;;;;12.68;7.53;;;14.70;99.90;;;;;;5032282;28;20023;-72
2022/10/10 09:32:44;;;;;;;11.98;7.85;;;14.70;99.90;;;;;;5032207;28;20025;-71
2022/10/10 09:35:37;;;;;;;11.52;7.18;;;14.70;99.90;;;;;;5039969;28;20033;-71
2022/10/10 09:38:16;;;;;;;16.17;8.02;;;14.80;99.90;;;;;;5031954;28;20040;-72
2022/10/10 09:40:52;;;;;;;13.20;7.68;;;14.80;99.90;;;;;;5030548;28;20460;-72
2022/10/10 09:43:19;;;;;;;14.40;8.32;;;14.80;99.90;;;;;;5031991;28;20025;-72
2022/10/10 09:45:55;;;;;;;13.52;8.40;;;14.80;99.90;;;;;;5025673;28;20498;-71
2022/10/10 09:48:47;;;;;;;15.48;7.50;;;14.80;99.90;;;;;;5031939;28;20080;-71
2022/10/10 09:51:19;;;;;;;11.60;7.72;;;14.90;99.90;;;;;;5024071;28;20042;-71
2022/10/10 09:53:47;;;;;;;18.20;8.77;;;14.90;99.90;;;;;;5023336;28;20042;-72
2022/10/10 09:56:29;;;;;;;13.57;7.45;;;14.90;99.90;;;;;;5027254;28;20030;-72
2022/10/10 09:59:01;;;;;;;12.10;7.93;;;15.00;99.90;;;;;;5012293;28;20054;-72
2022/10/10 10:01:36;;;;;;;26.55;8.10;;;15.10;99.90;;;;;;4985246;28;20064;-72
2022/10/10 10:04:14;;;;;;;15.35;8.82;;;15.20;99.90;;;;;;5021414;28;20020;-71
2022/10/10 10:07:03;;;;;;;16.45;7.70;;;15.20;99.90;;;;;;5031737;28;20013;-72
2022/10/10 10:09:32;;;;;;;13.63;8.35;;;15.30;99.90;;;;;;5047110;28;20049;-71
2022/10/10 10:11:58;;;;;;;10.88;7.65;;;15.30;99.90;;;;;;5031497;28;20030;-72
2022/10/10 10:14:28;;;;;;;14.77;9.05;;;15.30;99.90;;;;;;5031528;28;20079;-72
2022/10/10 10:17:06;;;;;;;14.32;7.93;;;15.30;99.90;;;;;;5031651;28;20029;-72
2022/10/10 10:19:37;;;;;;;13.23;7.97;;;15.30;99.90;;;;;;5028619;28;20380;-72
2022/10/10 10:22:22;;;;;;;12.68;7.97;;;15.30;99.90;;;;;;5031457;28;20022;-72
2022/10/10 10:24:50;;;;;;;11.23;7.18;;;15.30;99.90;;;;;;5047065;28;20028;-72
2022/10/10 10:27:19;;;;;;;13.57;7.53;;;15.30;99.90;;;;;;5031404;28;20034;-72
2022/10/10 10:29:51;;;;;;;14.43;7.90;;;15.30;99.90;;;;;;5046769;28;20086;-72
2022/10/10 10:32:35;;;;;;;13.52;7.30;;;15.30;99.90;;;;;;5014980;28;20375;-72
2022/10/10 10:35:03;;;;;;;13.90;7.60;;;15.40;99.90;;;;;;5046404;28;20490;-72
2022/10/10 10:38:00;;;;;;;15.13;8.60;;;15.40;99.90;;;;;;5031443;28;20022;-72
2022/10/10 10:41:04;;;;;;;14.05;9.07;;;15.50;99.90;;;;;;5047274;28;20029;-72
2022/10/10 10:43:45;;;;;;;15.75;8.43;;;15.50;99.90;;;;;;5033815;28;20021;-72
2022/10/10 10:46:48;;;;;;;12.25;7.47;;;15.60;99.90;;;;;;5034949;28;20100;-71
2022/10/10 10:49:20;;;;;;;14.68;7.78;;;15.80;99.90;;;;;;5033181;28;20545;-72
2022/10/10 10:52:15;;;;;;;19.95;8.10;;;15.90;99.90;;;;;;5027411;28;20386;-72
2022/10/10 10:55:07;;;;;;;12.73;8.32;;;16.00;99.90;;;;;;5034815;28;20018;-72
2022/10/10 10:57:57;;;;;;;12.93;8.50;;;16.10;99.90;;;;;;5009156;28;20076;-72
2022/10/10 11:00:27;;;;;;;12.55;7.00;;;16.20;99.90;;;;;;5028755;28;20056;-72
2022/10/10 11:03:26;;;;;;;12.18;7.32;;;16.30;99.90;;;;;;5027756;28;20022;-72
2022/10/10 11:06:29;;;;;;;14.32;6.53;;;16.40;99.90;;;;;;5022277;28;20411;-71
2022/10/10 11:09:07;;;;;;;15.52;6.55;;;16.40;99.90;;;;;;5032829;28;20087;-72
2022/10/10 11:11:53;;;;;;;12.93;5.38;;;16.60;99.90;;;;;;5029457;28;20029;-72
2022/10/10 11:15:01;;;;;;;13.30;5.53;;;16.60;99.90;;;;;;5029009;28;20083;-72
2022/10/10 11:17:38;;;;;;;11.38;4.90;;;16.70;99.90;;;;;;5028478;28;20046;-71
2022/10/10 11:20:18;;;;;;;9.05;4.00;;;16.70;99.90;;;;;;5033971;28;20025;-72
2022/10/10 11:23:13;;;;;;;11.40;4.85;;;16.70;99.90;;;;;;5048697;28;20095;-71
2022/10/10 11:25:59;;;;;;;8.57;3.83;;;16.70;99.90;;;;;;5016941;28;20065;-70
2022/10/10 11:28:39;;;;;;;7.63;4.60;;;16.80;99.90;;;;;;5029142;28;20560;-70
2022/10/10 11:31:13;;;;;;;17.45;4.50;;;16.90;99.90;;;;;;5031157;28;20082;-71
2022/10/10 11:33:46;;;;;;;13.77;3.97;;;16.90;99.90;;;;;;5031294;28;20030;-71
2022/10/10 11:36:19;;;;;;;8.35;3.72;;;17.00;99.90;;;;;;5028031;28;20033;-72
2022/10/10 11:39:09;;;;;;;9.30;3.75;;;17.10;99.90;;;;;;5033252;28;20510;-71
2022/10/10 11:41:46;;;;;;;12.00;3.70;;;17.10;99.90;;;;;;5033828;28;20051;-71
2022/10/10 11:44:21;;;;;;;8.05;3.40;;;17.20;99.90;;;;;;5027225;28;20477;-71
2022/10/10 11:47:07;;;;;;;10.63;3.53;;;17.20;99.90;;;;;;5032837;28;20021;-71
2022/10/10 11:49:48;;;;;;;9.27;4.10;;;17.30;99.90;;;;;;5030929;28;20486;-71
2022/10/10 11:52:21;;;;;;;9.68;3.25;;;17.30;99.90;;;;;;5025788;28;20025;-71
2022/10/10 11:54:57;;;;;;;12.13;3.63;;;17.30;99.90;;;;;;5026311;28;20079;-71
2022/10/10 11:57:29;;;;;;;9.82;3.03;;;17.40;99.90;;;;;;5028321;28;20127;-72
2022/10/10 12:00:03;;;;;;;8.65;2.58;;;17.50;99.90;;;;;;5031294;28;20030;-71
2022/10/10 12:02:46;;;;;;;17.08;3.55;;;17.60;99.90;;;;;;5027833;28;20089;-71
2022/10/10 12:05:29;;;;;;;11.25;3.70;;;17.80;99.90;;;;;;5028781;28;20506;-70
2022/10/10 12:08:04;;;;;;;15.15;3.47;;;17.90;99.90;;;;;;5041218;28;20436;-72
2022/10/10 12:10:38;;;;;;;14.68;3.78;;;18.10;99.90;;;;;;5043208;28;20021;-71
2022/10/10 12:13:21;;;;;;;8.45;3.28;;;18.20;99.90;;;;;;5027787;28;20181;-74
2022/10/10 12:15:51;;;;;;;12.32;3.63;;;18.30;99.90;;;;;;5031837;28;20429;-71
2022/10/10 12:18:30;;;;;;;12.50;2.63;;;18.40;99.90;;;;;;5044129;28;20036;-72
2022/10/10 12:21:09;;;;;;;10.07;2.67;;;18.50;99.90;;;;;;5029907;28;20068;-72
2022/10/10 12:23:35;;;;;;;15.45;4.25;;;18.70;99.90;;;;;;5030660;28;20017;-72
2022/10/10 12:26:01;;;;;;;14.50;3.05;;;18.70;99.90;;;;;;5031339;28;20028;-72
2022/10/10 12:29:07;;;;;;;17.55;2.88;;;18.80;99.90;;;;;;5032792;28;20025;-70
2022/10/10 12:31:37;;;;;;;17.27;3.15;;;18.90;99.90;;;;;;4990592;28;20038;-71
2022/10/10 12:34:15;;;;;;;12.98;3.22;;;18.90;99.90;;;;;;5027474;28;20546;-72
2022/10/10 12:37:20;;;;;;;12.68;2.95;;;19.00;99.90;;;;;;5032778;28;20029;-72
2022/10/10 12:40:18;;;;;;;14.88;3.22;;;19.10;99.90;;;;;;5009628;28;20036;-71
2022/10/10 12:42:55;;;;;;;10.05;2.90;;;19.20;99.90;;;;;;5032714;28;20071;-72
2022/10/10 12:45:30;;;;;;;12.73;3.58;;;19.30;99.90;;;;;;5032429;28;20029;-71
2022/10/10 12:48:05;;;;;;;13.32;2.63;;;19.30;99.90;;;;;;5031240;28;20014;-71
2022/10/10 12:50:40;;;;;;;11.55;2.83;;;19.40;99.90;;;;;;5030829;28;20116;-72
2022/10/10 12:53:12;;;;;;;14.18;2.80;;;19.40;99.90;;;;;;5030364;28;20505;-72
2022/10/10 12:55:52;;;;;;;15.50;3.60;;;19.50;99.90;;;;;;5027809;28;20029;-71
2022/10/10 12:58:26;;;;;;;19.73;3.03;;;19.50;99.90;;;;;;5026498;28;20033;-71
2022/10/10 13:00:52;;;;;;;;;;;19.50;99.90;;;;;;5028624;28;20053;-71
2022/10/10 13:03:28;;;;;;;16.13;3.28;;;19.50;99.50;;;;;;5028334;28;19913;-71
2022/10/10 13:06:04;;;;;;;11.77;2.50;;;19.50;99.50;;;;;;5030125;28;20075;-72
2022/10/10 13:08:40;;;;;;;7.40;2.55;;;19.60;99.40;;;;;;5028596;28;20029;-71
2022/10/10 13:11:13;;;;;;;9.68;3.28;;;19.60;99.50;;;;;;5030671;28;20044;-71